Time;durP1;ratioP1;P1;durP2;ratioP2;P2;SDS_P1;SDS_P2;PMS_P1;PMS_P2;Temp;Humidity;BMP_temperature;BMP_pressure;BME280_temperature;BME280_humidity;BME280_pressure;Samples;Min_cycle;Max_cycle;Signal;HPM_P1;HPM_P2
2022/02/20 00:01:34;;;;;;;3.72;1.25;;;5.80;99.90;;;;;;5073559;28;20557;-66
2022/02/20 00:04:00;;;;;;;5.22;1.00;;;5.80;99.90;;;;;;5075044;28;20032;-66
2022/02/20 00:06:26;;;;;;;;;;;6.00;99.90;;;;;;5075063;28;20058;-66
2022/02/20 00:08:52;;;;;;;5.88;1.25;;;6.10;99.90;;;;;;5075657;28;19909;-66
2022/02/20 00:11:17;;;;;;;6.10;1.20;;;6.10;99.90;;;;;;5077479;28;20032;-65
2022/02/20 00:13:43;;;;;;;3.33;1.20;;;6.10;99.90;;;;;;5075039;28;20020;-66
2022/02/20 00:16:09;;;;;;;6.70;1.50;;;6.20;99.90;;;;;;5074581;28;20099;-66
2022/02/20 00:18:34;;;;;;;8.25;1.60;;;6.30;99.90;;;;;;5073274;28;20050;-65
2022/02/20 00:21:00;;;;;;;2.97;1.00;;;6.30;99.90;;;;;;5074616;28;20088;-66
2022/02/20 00:23:26;;;;;;;7.43;1.17;;;6.40;99.90;;;;;;5074226;28;20489;-66
2022/02/20 00:25:52;;;;;;;6.60;1.00;;;6.40;99.90;;;;;;5074377;28;20040;-66
2022/02/20 00:28:17;;;;;;;6.70;1.10;;;6.40;99.90;;;;;;5074217;28;20024;-66
2022/02/20 00:30:43;;;;;;;6.60;1.57;;;6.40;99.90;;;;;;5075315;28;20308;-66
2022/02/20 00:33:11;;;;;;;4.07;0.90;;;6.40;99.90;;;;;;5074835;28;20031;-67
2022/02/20 00:35:37;;;;;;;4.30;1.10;;;6.50;99.90;;;;;;5075985;28;20040;-66
2022/02/20 00:38:05;;;;;;;3.72;1.45;;;6.60;99.90;;;;;;5074604;28;20032;-66
2022/02/20 00:40:31;;;;;;;6.43;1.35;;;6.60;99.90;;;;;;5074010;28;20029;-67
2022/02/20 00:42:57;;;;;;;;;;;6.70;99.90;;;;;;5073500;28;20029;-66
2022/02/20 00:45:23;;;;;;;3.50;1.05;;;6.70;99.90;;;;;;5073411;28;19931;-66
2022/02/20 00:47:50;;;;;;;3.27;0.83;;;6.70;99.90;;;;;;5072794;28;20054;-67
2022/02/20 00:50:15;;;;;;;6.85;1.52;;;6.70;99.90;;;;;;5072807;28;20743;-66
2022/02/20 00:52:41;;;;;;;5.60;1.37;;;6.80;99.90;;;;;;5074004;28;20024;-66
2022/02/20 00:55:08;;;;;;;4.93;1.00;;;6.80;99.90;;;;;;5074247;28;20055;-66
2022/02/20 00:57:33;;;;;;;3.25;1.08;;;6.80;99.90;;;;;;5074405;28;20020;-66
2022/02/20 00:59:59;;;;;;;4.47;1.13;;;6.90;99.90;;;;;;5073852;28;20231;-66
2022/02/20 01:02:25;;;;;;;8.33;1.10;;;6.80;99.90;;;;;;5073814;28;20366;-66
2022/02/20 01:04:51;;;;;;;7.30;1.47;;;7.00;99.90;;;;;;5073792;28;20461;-66
2022/02/20 01:07:18;;;;;;;6.30;1.88;;;7.00;99.90;;;;;;5073555;28;20062;-66
2022/02/20 01:09:44;;;;;;;5.57;1.48;;;7.00;99.90;;;;;;5073047;28;20025;-66
2022/02/20 01:12:10;;;;;;;5.50;2.42;;;7.00;99.90;;;;;;5073438;28;20016;-66
2022/02/20 01:14:36;;;;;;;8.38;1.20;;;7.10;99.90;;;;;;5073521;28;20043;-67
2022/02/20 01:17:02;;;;;;;9.10;1.50;;;7.00;99.90;;;;;;5073997;28;20029;-66
2022/02/20 01:19:28;;;;;;;11.13;1.63;;;7.00;99.90;;;;;;5073534;28;20024;-66
2022/02/20 01:21:53;;;;;;;6.97;1.53;;;7.00;99.90;;;;;;5073191;28;20374;-66
2022/02/20 01:24:19;;;;;;;8.43;1.73;;;7.10;99.90;;;;;;5073941;28;20104;-67
2022/02/20 01:26:45;;;;;;;4.87;1.10;;;7.10;99.90;;;;;;5072302;28;20021;-67
2022/02/20 01:29:10;;;;;;;6.23;1.03;;;7.10;99.90;;;;;;5073303;28;20115;-66
2022/02/20 01:31:36;;;;;;;7.17;1.17;;;7.10;99.90;;;;;;5073662;28;20028;-66
2022/02/20 01:34:02;;;;;;;5.10;1.07;;;7.10;99.90;;;;;;5073344;28;20361;-67
2022/02/20 01:36:27;;;;;;;4.50;1.60;;;7.10;99.90;;;;;;5073631;28;20048;-66
2022/02/20 01:38:53;;;;;;;3.40;1.20;;;7.10;99.90;;;;;;5072419;28;20040;-67
2022/02/20 01:41:19;;;;;;;6.30;1.13;;;7.10;99.90;;;;;;5072411;28;20040;-67
2022/02/20 01:43:46;;;;;;;;;;;7.10;99.90;;;;;;5074083;28;20074;-67
2022/02/20 01:46:12;;;;;;;4.07;1.00;;;7.10;99.90;;;;;;5073518;28;19912;-67
2022/02/20 01:48:37;;;;;;;3.70;0.90;;;7.10;99.90;;;;;;5073391;28;20024;-67
2022/02/20 01:51:05;;;;;;;6.30;1.27;;;7.10;99.90;;;;;;5073402;28;20023;-67
2022/02/20 01:53:31;;;;;;;4.57;1.05;;;7.10;99.90;;;;;;5073339;28;20259;-67
2022/02/20 01:55:57;;;;;;;4.07;1.13;;;7.10;99.90;;;;;;5071957;28;20084;-66
2022/02/20 01:58:23;;;;;;;4.70;1.20;;;7.10;99.90;;;;;;5073432;28;20112;-67
2022/02/20 02:00:48;;;;;;;4.95;1.10;;;7.10;99.90;;;;;;5073197;28;20060;-67
2022/02/20 02:03:15;;;;;;;8.93;1.67;;;7.20;99.90;;;;;;5073375;28;20025;-68
2022/02/20 02:05:42;;;;;;;4.50;1.05;;;7.20;99.90;;;;;;5073305;28;20381;-68
2022/02/20 02:08:07;;;;;;;5.93;1.00;;;7.20;99.90;;;;;;5073284;28;20024;-68
2022/02/20 02:10:33;;;;;;;5.47;1.67;;;7.20;99.90;;;;;;5073097;28;20079;-67
2022/02/20 02:12:59;;;;;;;5.78;0.95;;;7.20;99.90;;;;;;5072892;28;20024;-67
2022/02/20 02:15:25;;;;;;;3.57;1.10;;;7.20;99.90;;;;;;5073178;28;20396;-67
2022/02/20 02:17:50;;;;;;;10.40;1.20;;;7.20;99.90;;;;;;5071649;28;20075;-66
2022/02/20 02:20:16;;;;;;;9.40;1.73;;;7.20;99.90;;;;;;5071467;28;20025;-67
2022/02/20 02:22:42;;;;;;;3.27;1.30;;;7.10;99.90;;;;;;5074367;28;20036;-67
2022/02/20 02:25:08;;;;;;;3.23;0.80;;;7.10;99.90;;;;;;5075182;28;20043;-67
2022/02/20 02:27:35;;;;;;;;;;;7.10;99.90;;;;;;5077435;28;20031;-67
2022/02/20 02:30:05;;;;;;;8.93;1.40;;;7.10;99.90;;;;;;5076526;28;19905;-67
2022/02/20 02:32:31;;;;;;;7.85;1.23;;;7.10;99.90;;;;;;5076472;28;20029;-67
2022/02/20 02:34:56;;;;;;;5.75;0.98;;;7.10;99.90;;;;;;5076624;28;20397;-67
2022/02/20 02:37:22;;;;;;;9.20;1.00;;;7.10;99.90;;;;;;5075216;28;20036;-67
2022/02/20 02:39:48;;;;;;;5.67;0.90;;;7.00;99.90;;;;;;5076801;28;20457;-67
2022/02/20 02:42:13;;;;;;;6.00;1.30;;;7.00;99.90;;;;;;5074963;28;20039;-67
2022/02/20 02:44:39;;;;;;;8.17;1.00;;;7.00;99.90;;;;;;5076555;28;20029;-67
2022/02/20 02:47:05;;;;;;;4.67;1.30;;;6.90;99.90;;;;;;5074895;28;20035;-67
2022/02/20 02:49:31;;;;;;;3.63;0.93;;;6.90;99.90;;;;;;5074943;28;20025;-67
2022/02/20 02:51:57;;;;;;;3.63;0.90;;;6.90;99.90;;;;;;5076047;28;20035;-67
2022/02/20 02:54:22;;;;;;;5.17;1.20;;;6.90;99.90;;;;;;5076022;28;20055;-67
2022/02/20 02:56:49;;;;;;;6.13;1.13;;;6.90;99.90;;;;;;5075909;28;20031;-67
2022/02/20 02:59:16;;;;;;;3.55;1.10;;;6.90;99.90;;;;;;5076051;28;20021;-67
2022/02/20 03:01:43;;;;;;;5.40;1.35;;;6.80;99.90;;;;;;5077346;28;20500;-67
2022/02/20 03:04:09;;;;;;;7.22;1.35;;;6.80;99.90;;;;;;5076932;28;20024;-67
2022/02/20 03:06:35;;;;;;;7.28;1.20;;;6.80;99.90;;;;;;5074506;28;20107;-67
2022/02/20 03:09:03;;;;;;;6.47;1.13;;;6.80;99.90;;;;;;5075732;28;20025;-67
2022/02/20 03:11:29;;;;;;;3.83;0.90;;;6.90;99.90;;;;;;5075565;28;20031;-67
2022/02/20 03:13:54;;;;;;;4.43;0.90;;;6.80;99.90;;;;;;5075598;28;20417;-68
2022/02/20 03:16:20;;;;;;;6.67;1.00;;;6.80;99.90;;;;;;5075523;28;20265;-68
2022/02/20 03:18:45;;;;;;;2.10;0.90;;;6.80;99.90;;;;;;5075727;28;20107;-68
2022/02/20 03:21:11;;;;;;;5.27;1.20;;;6.70;99.90;;;;;;5074274;28;20035;-68
2022/02/20 03:23:37;;;;;;;6.30;1.33;;;6.60;99.90;;;;;;5074178;28;20439;-67
2022/02/20 03:26:03;;;;;;;2.40;0.70;;;6.60;99.90;;;;;;5075236;28;20031;-68
2022/02/20 03:28:28;;;;;;;4.20;1.07;;;6.60;99.90;;;;;;5075415;28;20246;-68
2022/02/20 03:30:54;;;;;;;3.97;1.00;;;6.50;99.90;;;;;;5075487;28;20021;-67
2022/02/20 03:33:21;;;;;;;4.22;0.90;;;6.50;99.90;;;;;;5074729;28;20027;-67
2022/02/20 03:35:47;;;;;;;9.25;1.20;;;6.50;99.90;;;;;;5075237;28;20025;-67
2022/02/20 03:38:13;;;;;;;3.95;0.90;;;6.50;99.90;;;;;;5075685;28;20032;-67
2022/02/20 03:40:39;;;;;;;3.80;1.25;;;6.50;99.90;;;;;;5075440;28;20082;-67
2022/02/20 03:43:05;;;;;;;6.25;1.70;;;6.50;99.90;;;;;;5075388;28;20090;-68
2022/02/20 03:45:31;;;;;;;4.10;1.58;;;6.50;99.90;;;;;;5073736;28;20116;-68
2022/02/20 03:47:58;;;;;;;5.78;1.38;;;6.50;99.90;;;;;;5074998;28;20530;-67
2022/02/20 03:50:24;;;;;;;4.25;1.38;;;6.50;99.90;;;;;;5073714;28;20487;-67
2022/02/20 03:52:50;;;;;;;2.60;0.90;;;6.50;99.90;;;;;;5074773;28;20107;-68
2022/02/20 03:55:17;;;;;;;5.45;1.05;;;6.50;99.90;;;;;;5074976;28;20033;-67
2022/02/20 03:57:43;;;;;;;2.95;0.60;;;6.50;99.90;;;;;;5074847;28;20464;-67
2022/02/20 04:00:13;;;;;;;5.55;0.93;;;6.50;99.90;;;;;;5074882;28;20029;-67
2022/02/20 04:02:40;;;;;;;3.25;0.90;;;6.50;99.90;;;;;;5074804;28;20028;-67
2022/02/20 04:05:07;;;;;;;3.33;0.88;;;6.50;99.90;;;;;;5075219;28;20422;-67
2022/02/20 04:07:34;;;;;;;5.82;1.08;;;6.50;99.90;;;;;;5075067;28;20501;-67
2022/02/20 04:09:59;;;;;;;;;;;6.50;99.90;;;;;;5075088;28;20020;-67
2022/02/20 04:12:25;;;;;;;2.60;0.70;;;6.50;99.90;;;;;;5074242;28;19911;-68
2022/02/20 04:14:52;;;;;;;3.58;0.88;;;6.50;99.90;;;;;;5074432;28;20381;-68
2022/02/20 04:17:20;;;;;;;6.57;0.98;;;6.50;99.90;;;;;;5074533;28;20544;-67
2022/02/20 04:19:49;;;;;;;3.33;0.90;;;6.50;99.90;;;;;;5074302;28;20396;-67
2022/02/20 04:22:15;;;;;;;3.92;0.73;;;6.50;99.90;;;;;;5074188;28;20029;-67
2022/02/20 04:24:41;;;;;;;3.63;0.90;;;6.50;99.90;;;;;;5074288;28;20040;-67
2022/02/20 04:27:07;;;;;;;3.80;1.27;;;6.50;99.90;;;;;;5074677;28;20054;-67
2022/02/20 04:29:33;;;;;;;4.45;1.48;;;6.50;99.90;;;;;;5074364;28;20032;-68
2022/02/20 04:31:59;;;;;;;4.43;0.87;;;6.60;99.90;;;;;;5075925;28;20036;-68
2022/02/20 04:34:25;;;;;;;4.53;0.98;;;6.60;99.90;;;;;;5075628;28;20270;-68
2022/02/20 04:36:51;;;;;;;6.93;0.80;;;6.60;99.90;;;;;;5074845;28;20040;-68
2022/02/20 04:39:17;;;;;;;4.13;0.70;;;6.60;99.90;;;;;;5072849;28;20270;-68
2022/02/20 04:41:43;;;;;;;2.63;0.93;;;6.60;99.90;;;;;;5073900;28;20393;-68
2022/02/20 04:44:08;;;;;;;2.88;1.67;;;6.70;99.90;;;;;;5073695;28;20021;-67
2022/02/20 04:46:35;;;;;;;4.47;1.00;;;6.70;99.90;;;;;;5074154;28;20123;-67
2022/02/20 04:49:04;;;;;;;4.72;0.90;;;6.70;99.90;;;;;;5074628;28;20516;-67
2022/02/20 04:51:30;;;;;;;1.48;0.68;;;6.70;99.90;;;;;;5074011;28;20023;-67
2022/02/20 04:53:56;;;;;;;2.70;0.82;;;6.60;99.90;;;;;;5074171;28;20150;-67
2022/02/20 04:56:21;;;;;;;3.03;0.77;;;6.60;99.90;;;;;;5073502;28;20052;-67
2022/02/20 04:58:47;;;;;;;4.03;1.37;;;6.70;99.90;;;;;;5074172;28;20028;-67
2022/02/20 05:01:13;;;;;;;2.63;0.60;;;6.70;99.90;;;;;;5074172;28;20029;-67
2022/02/20 05:03:38;;;;;;;3.20;0.67;;;6.70;99.90;;;;;;5074088;28;20028;-67
2022/02/20 05:06:04;;;;;;;1.47;0.60;;;6.70;99.90;;;;;;5073774;28;20358;-67
2022/02/20 05:08:29;;;;;;;3.27;0.70;;;6.70;99.90;;;;;;5073662;28;20095;-67
2022/02/20 05:10:55;;;;;;;2.90;0.57;;;6.70;99.90;;;;;;5073922;28;20028;-67
2022/02/20 05:13:21;;;;;;;4.83;0.70;;;6.70;99.90;;;;;;5074567;28;20024;-67
2022/02/20 05:15:47;;;;;;;1.23;0.57;;;6.70;99.90;;;;;;5072131;28;20263;-67
2022/02/20 05:18:14;;;;;;;1.45;0.45;;;6.70;99.90;;;;;;5072278;28;20410;-67
2022/02/20 05:20:39;;;;;;;;;;;6.70;99.90;;;;;;5074176;28;20035;-67
2022/02/20 05:23:08;;;;;;;1.38;0.63;;;6.80;99.90;;;;;;5073253;28;19912;-67
2022/02/20 05:25:34;;;;;;;2.50;0.70;;;6.70;99.90;;;;;;5071947;28;20179;-67
2022/02/20 05:27:59;;;;;;;2.33;0.60;;;6.80;99.90;;;;;;5072046;28;20065;-67
2022/02/20 05:30:25;;;;;;;2.43;0.60;;;6.80;99.90;;;;;;5073339;28;20497;-67
2022/02/20 05:32:50;;;;;;;3.00;0.50;;;6.80;99.90;;;;;;5073911;28;20100;-67
2022/02/20 05:35:16;;;;;;;4.27;0.70;;;6.90;99.90;;;;;;5073531;28;20056;-67
2022/02/20 05:37:48;;;;;;;1.20;0.50;;;6.90;99.90;;;;;;5071585;28;20094;-67
2022/02/20 05:40:15;;;;;;;2.13;0.57;;;6.90;99.90;;;;;;5073590;28;20397;-68
2022/02/20 05:42:41;;;;;;;3.58;0.70;;;6.90;99.90;;;;;;5073803;28;20028;-67
2022/02/20 05:45:07;;;;;;;1.23;0.43;;;6.90;99.90;;;;;;5071794;28;20119;-68
2022/02/20 05:47:33;;;;;;;3.00;0.68;;;7.00;99.90;;;;;;5071686;28;20078;-67
2022/02/20 05:49:59;;;;;;;4.97;0.70;;;6.90;99.90;;;;;;5073096;28;20020;-68
2022/02/20 05:52:26;;;;;;;4.22;0.63;;;6.90;99.90;;;;;;5073039;28;20023;-68
2022/02/20 05:54:52;;;;;;;4.28;1.17;;;6.90;99.90;;;;;;5073279;28;20439;-67
2022/02/20 05:57:18;;;;;;;2.67;0.50;;;6.90;99.90;;;;;;5076205;28;20025;-66
2022/02/20 05:59:43;;;;;;;5.10;0.60;;;6.90;99.90;;;;;;5077076;28;20024;-66
2022/02/20 06:02:09;;;;;;;3.90;0.60;;;6.90;99.90;;;;;;5077177;28;20377;-66
2022/02/20 06:04:34;;;;;;;2.03;0.67;;;6.90;99.90;;;;;;5076723;28;20105;-66
2022/02/20 06:07:03;;;;;;;3.47;0.40;;;7.00;99.90;;;;;;5077869;28;20036;-66
2022/02/20 06:09:29;;;;;;;5.80;1.10;;;7.00;99.90;;;;;;5077058;28;20126;-66
2022/02/20 06:11:55;;;;;;;2.17;0.60;;;7.00;99.90;;;;;;5075531;28;20048;-66
2022/02/20 06:14:21;;;;;;;4.82;0.60;;;6.90;99.90;;;;;;5076906;28;20435;-66
2022/02/20 06:16:46;;;;;;;2.43;1.07;;;7.00;99.90;;;;;;5076982;28;20036;-66
2022/02/20 06:19:12;;;;;;;1.50;0.80;;;7.00;99.90;;;;;;5080515;28;20115;-66
2022/02/20 06:21:39;;;;;;;1.87;0.53;;;7.00;99.90;;;;;;5080679;28;20036;-66
2022/02/20 06:24:05;;;;;;;0.98;0.40;;;6.90;99.90;;;;;;5076792;28;20459;-66
2022/02/20 06:26:31;;;;;;;1.13;0.50;;;6.90;99.90;;;;;;5075230;28;20025;-66
2022/02/20 06:28:56;;;;;;;0.83;0.37;;;6.90;99.90;;;;;;5076803;28;20036;-67
2022/02/20 06:31:22;;;;;;;1.60;0.43;;;6.90;99.90;;;;;;5076567;28;20048;-66
2022/02/20 06:33:51;;;;;;;0.60;0.50;;;7.00;99.90;;;;;;5076697;28;20089;-66
2022/02/20 06:36:17;;;;;;;2.38;0.57;;;6.90;99.90;;;;;;5077504;28;20028;-66
2022/02/20 06:38:42;;;;;;;1.02;0.50;;;6.90;99.90;;;;;;5075055;28;20123;-66
2022/02/20 06:41:10;;;;;;;3.10;0.60;;;6.90;99.90;;;;;;5075067;28;20031;-67
2022/02/20 06:43:36;;;;;;;1.38;0.47;;;6.90;99.90;;;;;;5076289;28;20393;-67
2022/02/20 06:46:01;;;;;;;2.95;0.60;;;6.90;99.90;;;;;;5076573;28;20020;-67
2022/02/20 06:48:27;;;;;;;0.80;0.40;;;6.90;99.90;;;;;;5076789;28;20036;-66
2022/02/20 06:50:53;;;;;;;2.30;0.40;;;6.90;99.90;;;;;;5076262;28;20027;-66
2022/02/20 06:53:21;;;;;;;1.63;0.70;;;6.90;99.90;;;;;;5076110;28;20251;-66
2022/02/20 06:55:47;;;;;;;1.95;0.77;;;6.90;99.90;;;;;;5076210;28;20039;-66
2022/02/20 06:58:13;;;;;;;1.40;0.50;;;7.00;99.90;;;;;;5075909;28;20377;-67
2022/02/20 07:00:39;;;;;;;4.90;0.60;;;6.90;99.90;;;;;;5074583;28;20021;-67
2022/02/20 07:03:04;;;;;;;1.05;0.50;;;7.00;99.90;;;;;;5074581;28;20031;-67
2022/02/20 07:05:30;;;;;;;3.23;0.50;;;7.00;99.90;;;;;;5076185;28;20090;-67
2022/02/20 07:07:57;;;;;;;0.87;0.30;;;7.00;99.90;;;;;;5074949;28;20097;-67
2022/02/20 07:10:23;;;;;;;1.63;0.40;;;7.00;99.90;;;;;;5074276;28;20020;-66
2022/02/20 07:12:49;;;;;;;1.05;0.40;;;7.00;99.90;;;;;;5075588;28;20024;-66
2022/02/20 07:15:15;;;;;;;1.20;0.50;;;7.00;99.90;;;;;;5075821;28;20036;-67
2022/02/20 07:17:40;;;;;;;0.93;0.43;;;7.00;99.90;;;;;;5075983;28;20205;-67
2022/02/20 07:20:07;;;;;;;0.93;0.60;;;7.00;99.90;;;;;;5076466;28;20509;-67
2022/02/20 07:22:34;;;;;;;0.85;0.45;;;7.10;99.90;;;;;;5076036;28;20044;-67
2022/02/20 07:25:01;;;;;;;0.65;0.38;;;7.00;99.90;;;;;;5075931;28;20028;-68
2022/02/20 07:27:27;;;;;;;2.25;0.60;;;7.10;99.90;;;;;;5075599;28;20023;-69
2022/02/20 07:29:52;;;;;;;1.50;0.45;;;7.10;99.90;;;;;;5075539;28;20055;-70
2022/02/20 07:32:18;;;;;;;5.07;0.65;;;7.20;99.90;;;;;;5074189;28;20021;-69
2022/02/20 07:34:44;;;;;;;1.03;0.60;;;7.20;99.90;;;;;;5075596;28;20503;-70
2022/02/20 07:37:09;;;;;;;2.37;0.40;;;7.20;99.90;;;;;;5075703;28;20027;-68
2022/02/20 07:39:35;;;;;;;0.80;0.40;;;7.40;99.90;;;;;;5073939;28;20025;-66
2022/02/20 07:42:01;;;;;;;1.10;0.50;;;7.40;99.90;;;;;;5075382;28;20070;-71
2022/02/20 07:44:27;;;;;;;1.40;0.50;;;7.40;99.90;;;;;;5074004;28;20048;-72
2022/02/20 07:46:52;;;;;;;1.10;0.60;;;7.40;99.90;;;;;;5074922;28;20385;-71
2022/02/20 07:49:18;;;;;;;2.93;0.87;;;7.40;99.90;;;;;;5075073;28;20020;-69
2022/02/20 07:51:45;;;;;;;2.28;0.50;;;7.40;99.90;;;;;;5075335;28;20035;-68
2022/02/20 07:54:10;;;;;;;2.35;0.57;;;7.40;99.90;;;;;;5075335;28;20025;-68
2022/02/20 07:56:36;;;;;;;0.98;0.38;;;7.40;99.90;;;;;;5073615;28;20397;-68
2022/02/20 07:59:03;;;;;;;0.85;0.50;;;7.40;99.90;;;;;;5073468;28;20040;-68
2022/02/20 08:01:31;;;;;;;2.00;0.55;;;7.40;99.90;;;;;;5074805;28;20028;-68
2022/02/20 08:03:57;;;;;;;2.33;0.50;;;7.40;99.90;;;;;;5074550;28;20044;-68
2022/02/20 08:06:24;;;;;;;2.58;0.50;;;7.50;99.90;;;;;;5073458;28;20036;-68
2022/02/20 08:08:50;;;;;;;4.03;0.60;;;7.50;99.90;;;;;;5073178;28;20021;-68
2022/02/20 08:11:17;;;;;;;2.38;0.55;;;7.60;99.90;;;;;;5074468;28;20016;-70
2022/02/20 08:13:43;;;;;;;1.70;0.88;;;7.60;99.90;;;;;;5074542;28;20021;-69
2022/02/20 08:16:09;;;;;;;4.68;1.50;;;7.70;99.90;;;;;;5075006;28;20032;-70
2022/02/20 08:18:35;;;;;;;0.93;0.50;;;7.80;99.90;;;;;;5073096;28;20058;-71
2022/02/20 08:21:01;;;;;;;3.20;1.90;;;7.80;99.90;;;;;;5074593;28;20263;-69
2022/02/20 08:23:26;;;;;;;4.07;1.30;;;7.90;99.90;;;;;;5074850;28;20086;-69
2022/02/20 08:25:52;;;;;;;2.30;0.60;;;7.90;99.90;;;;;;5074117;28;20524;-67
2022/02/20 08:28:18;;;;;;;4.63;1.73;;;8.00;99.90;;;;;;5072977;28;20024;-67
2022/02/20 08:30:43;;;;;;;12.50;6.37;;;8.00;99.90;;;;;;5074533;28;20374;-67
2022/02/20 08:33:10;;;;;;;2.77;0.70;;;8.00;99.90;;;;;;5074072;28;20020;-67
2022/02/20 08:35:36;;;;;;;4.15;1.10;;;8.10;99.90;;;;;;5074393;28;20103;-67
2022/02/20 08:38:04;;;;;;;1.70;0.50;;;8.10;99.90;;;;;;5074008;28;20525;-67
2022/02/20 08:40:30;;;;;;;1.63;0.63;;;8.10;99.90;;;;;;5072828;28;20449;-67
2022/02/20 08:42:56;;;;;;;1.52;0.50;;;8.10;99.90;;;;;;5074522;28;20056;-67
2022/02/20 08:45:22;;;;;;;0.60;0.30;;;8.10;99.90;;;;;;5073056;28;20119;-68
2022/02/20 08:47:48;;;;;;;0.55;0.40;;;8.10;99.90;;;;;;5073968;28;20020;-67
2022/02/20 08:50:15;;;;;;;0.80;0.38;;;8.10;99.90;;;;;;5072598;28;20573;-67
2022/02/20 08:52:41;;;;;;;0.80;0.32;;;8.20;99.90;;;;;;5073751;28;20036;-67
2022/02/20 08:55:08;;;;;;;2.30;0.57;;;8.10;99.90;;;;;;5074065;28;20029;-68
2022/02/20 08:57:34;;;;;;;0.65;0.45;;;8.10;99.90;;;;;;5074337;28;20035;-66
2022/02/20 09:00:01;;;;;;;2.05;0.47;;;8.10;99.90;;;;;;5075717;28;20028;-70
2022/02/20 09:02:27;;;;;;;2.17;0.60;;;8.10;99.90;;;;;;5076366;28;20036;-71
2022/02/20 09:04:53;;;;;;;1.30;0.50;;;8.10;99.90;;;;;;5077853;28;20417;-72
2022/02/20 09:07:19;;;;;;;1.10;0.50;;;8.10;99.90;;;;;;5074466;28;20128;-68
2022/02/20 09:09:44;;;;;;;2.13;0.70;;;8.10;99.90;;;;;;5073956;28;20267;-72
2022/02/20 09:12:10;;;;;;;2.63;0.73;;;8.20;99.90;;;;;;5072488;28;20020;-72
2022/02/20 09:14:36;;;;;;;1.47;0.50;;;8.20;99.90;;;;;;5074135;28;20493;-71
2022/02/20 09:17:02;;;;;;;1.60;0.60;;;8.30;99.90;;;;;;5073569;28;20020;-73
2022/02/20 09:19:28;;;;;;;1.52;0.80;;;8.30;99.90;;;;;;5072595;28;20029;-70
2022/02/20 09:21:55;;;;;;;1.40;0.52;;;8.30;99.90;;;;;;5072170;28;20115;-67
2022/02/20 09:24:21;;;;;;;2.70;1.10;;;8.30;99.90;;;;;;5073616;28;20082;-69
2022/02/20 09:26:47;;;;;;;2.17;0.55;;;8.30;99.90;;;;;;5073431;28;20040;-66
2022/02/20 09:29:13;;;;;;;2.08;0.50;;;8.20;99.90;;;;;;5072258;28;20081;-71
2022/02/20 09:31:39;;;;;;;1.55;0.47;;;8.20;99.90;;;;;;5072775;28;20046;-67
2022/02/20 09:34:05;;;;;;;0.70;0.40;;;8.20;99.90;;;;;;5073418;28;20028;-68
2022/02/20 09:36:31;;;;;;;2.25;0.55;;;8.30;99.90;;;;;;5073364;28;20025;-68
2022/02/20 09:38:57;;;;;;;1.27;0.80;;;8.30;99.90;;;;;;5071904;28;20044;-69
2022/02/20 09:41:31;;;;;;;1.35;0.50;;;8.30;99.90;;;;;;5073215;28;20029;-70
2022/02/20 09:43:58;;;;;;;1.00;0.50;;;8.30;99.90;;;;;;5072272;28;20438;-72
2022/02/20 09:46:23;;;;;;;1.05;0.50;;;8.40;99.90;;;;;;5073308;28;20112;-68
2022/02/20 09:48:51;;;;;;;2.47;0.60;;;8.40;99.90;;;;;;5073429;28;20106;-73
2022/02/20 09:51:17;;;;;;;0.80;0.50;;;8.40;99.90;;;;;;5072628;28;20258;-67
2022/02/20 09:53:43;;;;;;;0.98;0.50;;;8.40;99.90;;;;;;5074035;28;20560;-69
2022/02/20 09:56:09;;;;;;;1.13;0.40;;;8.50;99.90;;;;;;5074664;28;20108;-67
2022/02/20 09:58:34;;;;;;;1.63;0.60;;;8.60;99.90;;;;;;5072412;28;20032;-68
2022/02/20 10:01:06;;;;;;;2.67;0.60;;;8.70;99.90;;;;;;5073610;28;20419;-64
2022/02/20 10:03:34;;;;;;;6.22;0.70;;;8.80;99.90;;;;;;5071827;28;20086;-68
2022/02/20 10:06:02;;;;;;;1.52;0.50;;;8.80;99.90;;;;;;5073489;28;20489;-67
2022/02/20 10:08:40;;;;;;;1.48;0.52;;;8.80;99.90;;;;;;5073466;28;20162;-64
2022/02/20 10:11:12;;;;;;;;;;;8.90;99.90;;;;;;5073373;28;20546;-64
2022/02/20 10:13:37;;;;;;;1.88;1.10;;;8.90;99.90;;;;;;5073171;28;19961;-69
2022/02/20 10:16:25;;;;;;;1.20;0.70;;;8.90;99.90;;;;;;5071752;28;20020;-69
2022/02/20 10:18:53;;;;;;;0.95;0.50;;;8.90;99.90;;;;;;5071758;28;20036;-70
2022/02/20 10:21:24;;;;;;;1.35;0.47;;;9.00;99.90;;;;;;5073156;28;20078;-68
2022/02/20 10:23:55;;;;;;;3.83;0.60;;;9.10;99.90;;;;;;5073606;28;20113;-69
2022/02/20 10:26:23;;;;;;;1.30;0.50;;;9.10;99.90;;;;;;5073870;28;20385;-69
2022/02/20 10:28:59;;;;;;;2.00;0.55;;;9.10;99.90;;;;;;5072963;28;20048;-70
2022/02/20 10:31:37;;;;;;;2.40;0.80;;;9.20;99.90;;;;;;5074850;28;20024;-66
2022/02/20 10:34:06;;;;;;;1.83;0.43;;;9.30;99.90;;;;;;5074591;28;20499;-66
2022/02/20 10:36:45;;;;;;;1.77;0.60;;;9.30;99.90;;;;;;5075720;28;20021;-66
2022/02/20 10:39:21;;;;;;;1.38;0.30;;;9.20;99.90;;;;;;5075567;28;20084;-67
2022/02/20 10:41:47;;;;;;;2.17;0.60;;;9.20;99.90;;;;;;5074493;28;20081;-71
2022/02/20 10:44:13;;;;;;;2.42;0.47;;;9.20;99.90;;;;;;5075627;28;20037;-69
2022/02/20 10:46:40;;;;;;;0.85;0.63;;;9.20;99.90;;;;;;5075486;28;20024;-66
2022/02/20 10:49:06;;;;;;;4.15;0.82;;;9.30;99.90;;;;;;5076884;28;20029;-67
2022/02/20 10:51:41;;;;;;;2.85;0.80;;;9.30;99.90;;;;;;5076424;28;20025;-67
2022/02/20 10:54:07;;;;;;;0.93;0.40;;;9.30;99.90;;;;;;5079621;28;20112;-67
2022/02/20 10:56:40;;;;;;;1.20;0.50;;;9.40;99.90;;;;;;5079203;28;20060;-67
2022/02/20 10:59:06;;;;;;;0.60;0.40;;;9.40;99.90;;;;;;5076017;28;20029;-66
2022/02/20 11:01:31;;;;;;;1.25;0.50;;;9.40;99.90;;;;;;5076267;28;20085;-71
2022/02/20 11:04:12;;;;;;;0.80;0.50;;;9.40;99.90;;;;;;5075108;28;20032;-69
2022/02/20 11:06:39;;;;;;;1.00;0.60;;;9.30;99.90;;;;;;5075120;28;20426;-71
2022/02/20 11:09:05;;;;;;;;;;;9.30;99.90;;;;;;5076703;28;20445;-68
2022/02/20 11:11:42;;;;;;;1.52;0.70;;;9.30;99.90;;;;;;5075844;28;19911;-71
2022/02/20 11:14:13;;;;;;;1.10;0.60;;;9.30;99.90;;;;;;5077415;28;20021;-70
2022/02/20 11:16:52;;;;;;;3.45;1.27;;;9.30;99.90;;;;;;5077601;28;20107;-69
2022/02/20 11:19:22;;;;;;;1.58;1.00;;;9.30;99.90;;;;;;5074621;28;20024;-72
2022/02/20 11:21:52;;;;;;;3.78;1.38;;;9.30;99.90;;;;;;5075403;28;20032;-70
2022/02/20 11:24:19;;;;;;;2.83;0.70;;;9.40;99.90;;;;;;5074089;28;20036;-67
2022/02/20 11:26:45;;;;;;;4.10;0.50;;;9.40;99.90;;;;;;5075525;28;20028;-70
2022/02/20 11:29:12;;;;;;;5.93;0.73;;;9.40;99.90;;;;;;5075746;28;20028;-69
2022/02/20 11:31:43;;;;;;;3.42;0.90;;;9.30;99.90;;;;;;5074472;28;20024;-74
2022/02/20 11:34:11;;;;;;;2.03;0.60;;;9.30;99.90;;;;;;5076535;28;20024;-69
2022/02/20 11:36:37;;;;;;;1.67;0.60;;;9.30;99.90;;;;;;5075674;28;20444;-67
2022/02/20 11:39:13;;;;;;;1.50;1.00;;;9.40;99.90;;;;;;5075310;28;20115;-69
2022/02/20 11:42:08;;;;;;;1.47;0.80;;;9.30;99.90;;;;;;5076450;28;20031;-71
2022/02/20 11:44:52;;;;;;;1.67;0.75;;;9.40;99.90;;;;;;5075855;28;20286;-74
2022/02/20 11:48:03;;;;;;;1.17;0.57;;;9.40;99.90;;;;;;5073670;28;20480;-63
2022/02/20 11:50:29;;;;;;;1.95;0.90;;;9.40;99.90;;;;;;5055892;28;20125;-64
2022/02/20 11:53:02;;;;;;;2.73;1.23;;;9.40;99.90;;;;;;5073842;28;20158;-64
2022/02/20 11:55:32;;;;;;;3.10;1.20;;;9.50;99.90;;;;;;5075121;28;20021;-66
2022/02/20 11:58:13;;;;;;;2.83;0.90;;;9.50;99.90;;;;;;5074859;28;20493;-66
2022/02/20 12:00:54;;;;;;;3.10;1.10;;;9.50;99.90;;;;;;5075049;28;20374;-65
2022/02/20 12:03:23;;;;;;;1.40;0.90;;;9.50;99.90;;;;;;5074815;28;20442;-66
2022/02/20 12:06:07;;;;;;;2.67;1.23;;;9.50;99.90;;;;;;5074807;28;20083;-65
2022/02/20 12:08:40;;;;;;;10.02;4.85;;;9.50;99.90;;;;;;5073562;28;20025;-65
2022/02/20 12:11:16;;;;;;;2.90;1.25;;;9.70;99.90;;;;;;5073751;28;20112;-65
2022/02/20 12:13:47;;;;;;;3.38;1.23;;;9.60;99.90;;;;;;5073478;28;20404;-64
2022/02/20 12:16:23;;;;;;;2.03;0.65;;;9.70;99.90;;;;;;5074575;28;20029;-65
2022/02/20 12:19:14;;;;;;;2.50;1.00;;;9.70;99.90;;;;;;5073527;28;20033;-66
2022/02/20 12:21:52;;;;;;;2.33;0.63;;;9.80;99.90;;;;;;5075135;28;20070;-65
2022/02/20 12:24:21;;;;;;;1.52;1.00;;;9.80;99.90;;;;;;5074790;28;20097;-65
2022/02/20 12:27:00;;;;;;;2.03;0.60;;;9.80;99.90;;;;;;5074708;28;20458;-66
2022/02/20 12:29:39;;;;;;;1.90;0.80;;;9.90;99.90;;;;;;5074612;28;20074;-66
2022/02/20 12:32:20;;;;;;;0.60;0.40;;;9.90;99.90;;;;;;5074751;28;20055;-66
2022/02/20 12:34:47;;;;;;;1.75;0.50;;;10.00;99.90;;;;;;5074925;28;20157;-64
2022/02/20 12:37:20;;;;;;;1.27;0.68;;;10.00;99.90;;;;;;5074885;28;20104;-66
2022/02/20 12:39:51;;;;;;;2.58;0.70;;;10.00;99.90;;;;;;5074294;28;20020;-67
2022/02/20 12:42:16;;;;;;;2.42;0.70;;;10.00;99.90;;;;;;5074109;28;20078;-66
2022/02/20 12:44:42;;;;;;;2.20;0.57;;;10.00;99.90;;;;;;5074333;28;20021;-67
2022/02/20 12:47:09;;;;;;;3.10;0.60;;;10.00;99.90;;;;;;5074183;28;20028;-66
2022/02/20 12:49:49;;;;;;;1.67;0.50;;;10.10;99.90;;;;;;5074471;28;20013;-65
2022/02/20 12:52:15;;;;;;;4.35;1.27;;;10.10;99.90;;;;;;5073736;28;20112;-65
2022/02/20 12:54:40;;;;;;;1.05;0.60;;;10.10;99.90;;;;;;5072750;28;20052;-65
2022/02/20 12:57:08;;;;;;;2.95;0.73;;;10.10;99.90;;;;;;5074145;28;20107;-65
2022/02/20 12:59:52;;;;;;;1.85;1.00;;;10.10;99.90;;;;;;5073830;28;20084;-65